createdAt,value
2023-05-06T00:01:45.201Z,15.54
2023-05-06T00:04:12.623Z,15.53
2023-05-06T00:06:41.758Z,15.46
2023-05-06T00:09:09.411Z,15.47
2023-05-06T00:11:36.992Z,15.34
2023-05-06T00:14:06.050Z,15.38
2023-05-06T00:16:33.645Z,15.17
2023-05-06T00:19:01.388Z,15.25
2023-05-06T00:21:28.829Z,14.70
2023-05-06T00:23:56.440Z,14.77
2023-05-06T00:26:23.844Z,14.66
2023-05-06T00:28:51.238Z,14.84
2023-05-06T00:31:19.943Z,14.85
2023-05-06T00:33:47.338Z,14.80
2023-05-06T00:36:14.820Z,14.70
2023-05-06T00:38:42.261Z,14.71
2023-05-06T00:41:09.850Z,14.87
2023-05-06T00:43:37.268Z,15.02
2023-05-06T00:46:05.421Z,14.80
2023-05-06T00:48:34.218Z,14.63
2023-05-06T00:51:01.684Z,14.73
2023-05-06T00:53:29.101Z,14.86
2023-05-06T00:55:56.953Z,14.81
2023-05-06T00:58:24.354Z,14.81
2023-05-06T01:00:52.201Z,14.73
2023-05-06T01:03:19.858Z,14.00
2023-05-06T01:05:56.069Z,14.28
2023-05-06T01:08:30.518Z,14.47
2023-05-06T01:11:03.260Z,14.53
2023-05-06T01:13:36.369Z,14.61
2023-05-06T01:16:05.839Z,14.33
2023-05-06T01:18:33.985Z,14.39
2023-05-06T01:21:05.954Z,14.38
2023-05-06T01:23:52.654Z,14.27
2023-05-06T01:26:20.327Z,14.42
2023-05-06T01:28:47.747Z,14.31
2023-05-06T01:31:23.681Z,14.16
2023-05-06T01:34:00.625Z,14.10
2023-05-06T01:36:38.536Z,14.14
2023-05-06T01:39:13.946Z,14.12
2023-05-06T01:41:42.399Z,14.11
2023-05-06T01:44:11.758Z,14.10
2023-05-06T01:46:39.568Z,14.00
2023-05-06T01:49:11.311Z,14.08
2023-05-06T01:51:39.268Z,14.02
2023-05-06T01:54:10.738Z,14.23
2023-05-06T01:56:38.145Z,14.10
2023-05-06T01:59:05.527Z,14.07
2023-05-06T02:01:33.032Z,13.99
2023-05-06T02:04:01.502Z,13.88
2023-05-06T02:06:29.113Z,13.78
2023-05-06T02:08:56.732Z,13.46
2023-05-06T02:11:25.701Z,13.61
2023-05-06T02:13:55.053Z,13.71
2023-05-06T02:16:22.559Z,13.53
2023-05-06T02:18:50.832Z,13.56
2023-05-06T02:21:18.227Z,13.68
2023-05-06T02:23:45.562Z,13.74
2023-05-06T02:26:12.949Z,13.67
2023-05-06T02:28:41.924Z,13.33
2023-05-06T02:31:09.454Z,13.48
2023-05-06T02:33:36.909Z,13.53
2023-05-06T02:36:04.760Z,13.67
2023-05-06T02:38:32.182Z,13.67
2023-05-06T02:40:59.630Z,13.79
2023-05-06T02:43:27.125Z,13.79
2023-05-06T02:45:55.884Z,13.88
2023-05-06T02:48:23.661Z,13.92
2023-05-06T02:50:52.550Z,13.91
2023-05-06T02:53:19.939Z,13.84
2023-05-06T02:55:47.372Z,13.90
2023-05-06T02:58:14.782Z,13.94
2023-05-06T03:00:42.203Z,14.03
2023-05-06T03:03:11.284Z,14.02
2023-05-06T03:05:38.730Z,13.85
2023-05-06T03:08:06.800Z,13.56
2023-05-06T03:10:34.273Z,13.62
2023-05-06T03:13:01.768Z,13.82
2023-05-06T03:15:29.177Z,13.58
2023-05-06T03:17:56.563Z,13.63
2023-05-06T03:20:25.254Z,13.42
2023-05-06T03:22:53.650Z,13.72
2023-05-06T03:25:21.096Z,13.48
2023-05-06T03:27:48.491Z,13.53
2023-05-06T03:30:15.928Z,13.75
2023-05-06T03:32:43.689Z,13.92
2023-05-06T03:35:11.512Z,13.98
2023-05-06T03:37:40.534Z,14.02
2023-05-06T03:40:09.520Z,14.01
2023-05-06T03:42:36.928Z,13.92
2023-05-06T03:45:04.940Z,14.04
2023-05-06T03:47:32.396Z,14.12
2023-05-06T03:50:00.199Z,14.10
2023-05-06T03:52:27.691Z,13.99
2023-05-06T03:54:56.356Z,13.91
2023-05-06T03:57:23.759Z,14.05
2023-05-06T03:59:51.219Z,14.04
2023-05-06T04:02:18.671Z,14.21
2023-05-06T04:04:46.087Z,14.29
2023-05-06T04:07:13.459Z,13.77
2023-05-06T04:09:40.899Z,13.94
2023-05-06T04:12:09.592Z,13.84
2023-05-06T04:14:37.047Z,13.97
2023-05-06T04:17:04.407Z,14.14
2023-05-06T04:19:32.076Z,14.21
2023-05-06T04:21:59.455Z,14.18
2023-05-06T04:24:28.286Z,14.32
2023-05-06T04:26:56.674Z,14.15
2023-05-06T04:29:26.245Z,14.27
2023-05-06T04:31:54.224Z,14.11
2023-05-06T04:34:21.823Z,14.03
2023-05-06T04:36:49.479Z,14.28
2023-05-06T04:39:18.094Z,13.74
2023-05-06T04:41:46.068Z,13.63
2023-05-06T04:44:13.979Z,14.11
2023-05-06T04:46:42.677Z,13.99
2023-05-06T04:49:11.374Z,13.82
2023-05-06T04:51:39.851Z,14.17
2023-05-06T04:54:07.221Z,14.43
2023-05-06T04:56:34.963Z,14.54
2023-05-06T04:59:02.657Z,14.02
2023-05-06T05:01:30.092Z,14.24
2023-05-06T05:03:58.892Z,14.46
2023-05-06T05:06:26.282Z,13.83
2023-05-06T05:08:55.331Z,14.29
2023-05-06T05:11:22.926Z,14.47
2023-05-06T05:13:50.313Z,14.51
2023-05-06T05:16:17.908Z,14.57
2023-05-06T05:18:45.323Z,14.71
2023-05-06T05:21:14.042Z,14.50
2023-05-06T05:23:41.448Z,14.67
2023-05-06T05:26:08.853Z,14.59
2023-05-06T05:28:36.238Z,14.76
2023-05-06T05:31:04.422Z,14.87
2023-05-06T05:33:32.070Z,14.95
2023-05-06T05:35:59.538Z,15.07
2023-05-06T05:38:28.303Z,14.84
2023-05-06T05:40:55.670Z,15.06
2023-05-06T05:43:25.877Z,15.03
2023-05-06T05:45:53.487Z,14.59
2023-05-06T05:48:20.940Z,14.67
2023-05-06T05:50:48.306Z,13.86
2023-05-06T05:53:15.730Z,14.11
2023-05-06T05:55:44.461Z,14.44
2023-05-06T05:58:11.963Z,14.40
2023-05-06T06:00:39.380Z,14.63
2023-05-06T06:03:07.082Z,14.83
2023-05-06T06:05:34.566Z,14.52
2023-05-06T06:08:03.768Z,14.44
2023-05-06T06:10:31.491Z,14.40
2023-05-06T06:13:00.332Z,14.69
2023-05-06T06:15:27.753Z,14.73
2023-05-06T06:17:55.637Z,14.69
2023-05-06T06:20:23.046Z,14.76
2023-05-06T06:22:50.529Z,14.59
2023-05-06T06:25:17.909Z,14.88
2023-05-06T06:27:45.291Z,14.69
2023-05-06T06:30:14.443Z,14.67
2023-05-06T06:32:48.540Z,14.87
2023-05-06T06:35:20.304Z,14.85
2023-05-06T06:37:47.862Z,14.50
2023-05-06T06:40:15.666Z,14.96
2023-05-06T06:42:43.144Z,15.15
2023-05-06T06:45:11.740Z,15.69
2023-05-06T06:47:41.271Z,15.87
2023-05-06T06:50:10.014Z,15.91
2023-05-06T06:52:37.454Z,16.24
2023-05-06T06:55:05.582Z,16.13
2023-05-06T06:57:33.383Z,16.81
2023-05-06T07:00:00.997Z,15.78
2023-05-06T07:02:28.783Z,16.67
2023-05-06T07:04:57.497Z,16.04
2023-05-06T07:07:25.087Z,16.67
2023-05-06T07:09:52.522Z,16.45
2023-05-06T07:12:19.903Z,16.15
2023-05-06T07:14:47.352Z,15.33
2023-05-06T07:17:14.798Z,15.25
2023-05-06T07:19:42.217Z,15.86
2023-05-06T07:22:10.962Z,16.18
2023-05-06T07:24:38.422Z,16.13
2023-05-06T07:27:05.865Z,15.54
2023-05-06T07:29:34.854Z,16.00
2023-05-06T07:32:02.227Z,16.25
2023-05-06T07:34:29.629Z,16.17
2023-05-06T07:36:57.253Z,16.30
2023-05-06T07:39:26.020Z,15.67
2023-05-06T07:41:53.375Z,16.24
2023-05-06T07:44:20.752Z,15.83
2023-05-06T07:46:48.307Z,15.77
2023-05-06T07:49:15.792Z,16.06
2023-05-06T07:51:43.469Z,16.07
2023-05-06T07:54:11.166Z,15.45
2023-05-06T07:56:39.857Z,15.74
2023-05-06T07:59:07.315Z,15.79
2023-05-06T08:01:34.686Z,15.20
2023-05-06T08:04:02.232Z,15.28
2023-05-06T08:06:29.714Z,14.92
2023-05-06T08:08:57.117Z,15.37
2023-05-06T08:11:24.543Z,15.48
2023-05-06T08:13:53.347Z,15.19
2023-05-06T08:16:22.546Z,15.20
2023-05-06T08:18:51.139Z,15.30
2023-05-06T08:21:18.556Z,14.92
2023-05-06T08:23:46.295Z,15.38
2023-05-06T08:26:14.264Z,15.29
2023-05-06T08:28:41.726Z,15.22
2023-05-06T08:31:10.491Z,15.05
2023-05-06T08:33:37.986Z,14.91
2023-05-06T08:36:05.720Z,14.81
2023-05-06T08:38:33.113Z,14.80
2023-05-06T08:41:08.650Z,14.84
2023-05-06T08:43:41.120Z,14.82
2023-05-06T08:46:10.025Z,15.01
2023-05-06T08:48:37.834Z,14.68
2023-05-06T08:51:06.149Z,14.84
2023-05-06T08:53:34.238Z,15.05
2023-05-06T08:56:04.650Z,15.39
2023-05-06T08:58:35.906Z,14.82
2023-05-06T09:01:04.443Z,14.99
2023-05-06T09:03:33.338Z,15.09
2023-05-06T09:06:00.907Z,14.81
2023-05-06T09:08:28.458Z,14.73
2023-05-06T09:10:55.855Z,14.53
2023-05-06T09:13:23.302Z,15.11
2023-05-06T09:15:54.068Z,15.58
2023-05-06T09:18:21.529Z,15.69
2023-05-06T09:20:50.958Z,15.62
2023-05-06T09:23:19.496Z,16.16
2023-05-06T09:25:49.615Z,16.42
2023-05-06T09:28:17.074Z,15.55
2023-05-06T09:30:47.437Z,15.84
2023-05-06T09:33:14.992Z,15.77
2023-05-06T09:35:44.431Z,15.30
2023-05-06T09:38:13.148Z,14.91
2023-05-06T09:40:40.788Z,15.86
2023-05-06T09:43:08.887Z,15.53
2023-05-06T09:45:36.930Z,15.53
2023-05-06T09:48:05.224Z,15.27
2023-05-06T09:50:33.561Z,15.59
2023-05-06T09:53:03.605Z,16.32
2023-05-06T09:55:33.875Z,15.96
2023-05-06T09:58:02.328Z,15.59
2023-05-06T10:00:31.631Z,16.03
2023-05-06T10:03:00.268Z,16.11
2023-05-06T10:05:29.907Z,16.19
2023-05-06T10:07:58.192Z,16.48
2023-05-06T10:10:27.716Z,16.49
2023-05-06T10:12:56.587Z,16.96
2023-05-06T10:15:26.457Z,16.68
2023-05-06T10:17:55.324Z,16.23
2023-05-06T10:20:25.613Z,16.24
2023-05-06T10:23:03.345Z,16.59
2023-05-06T10:25:36.985Z,15.71
2023-05-06T10:28:09.792Z,15.38
2023-05-06T10:30:45.912Z,15.75
2023-05-06T10:33:16.341Z,15.73
2023-05-06T10:35:50.754Z,15.58
2023-05-06T10:38:24.147Z,16.04
2023-05-06T10:40:53.273Z,15.60
2023-05-06T10:43:24.627Z,15.52
2023-05-06T10:46:08.203Z,15.92
2023-05-06T10:48:37.686Z,16.39
2023-05-06T10:51:25.079Z,16.07
2023-05-06T10:54:02.242Z,16.04
2023-05-06T10:56:31.490Z,16.17
2023-05-06T10:59:02.675Z,15.87
2023-05-06T11:01:30.162Z,16.24
2023-05-06T11:03:57.812Z,16.59
2023-05-06T11:06:36.030Z,16.08
2023-05-06T11:09:05.111Z,16.61
2023-05-06T11:11:48.467Z,16.18
2023-05-06T11:14:26.336Z,15.95
2023-05-06T11:16:54.910Z,15.87
2023-05-06T11:19:23.692Z,16.43
2023-05-06T11:21:51.657Z,16.65
2023-05-06T11:24:27.098Z,15.64
2023-05-06T11:26:55.523Z,15.47
2023-05-06T11:29:24.621Z,16.30
2023-05-06T11:31:53.972Z,16.36
2023-05-06T11:34:27.226Z,16.81
2023-05-06T11:37:02.075Z,17.04
2023-05-06T11:39:31.264Z,17.67
2023-05-06T11:42:00.077Z,17.01
2023-05-06T11:44:31.278Z,16.54
2023-05-06T11:47:05.586Z,16.76
2023-05-06T11:49:39.269Z,16.65
2023-05-06T11:52:06.852Z,17.59
2023-05-06T11:54:36.103Z,16.58
2023-05-06T11:57:03.556Z,17.03
2023-05-06T11:59:33.908Z,17.29
2023-05-06T12:02:03.365Z,17.82
2023-05-06T12:04:38.661Z,17.48
2023-05-06T12:07:07.505Z,17.78
2023-05-06T12:09:36.025Z,18.03
2023-05-06T12:12:04.651Z,16.79
2023-05-06T12:14:37.071Z,18.13
2023-05-06T12:17:05.090Z,18.19
2023-05-06T12:19:33.260Z,17.22
2023-05-06T12:22:17.936Z,18.78
2023-05-06T12:24:45.404Z,17.73
2023-05-06T12:27:13.158Z,17.38
2023-05-06T12:29:52.679Z,17.47
2023-05-06T12:32:20.128Z,17.12
2023-05-06T12:34:47.499Z,17.02
2023-05-06T12:37:25.920Z,16.49
2023-05-06T12:39:53.420Z,16.34
2023-05-06T12:42:23.352Z,17.40
2023-05-06T12:44:52.156Z,17.54
2023-05-06T12:47:20.997Z,18.25
2023-05-06T12:49:49.687Z,16.87
2023-05-06T12:52:17.959Z,16.77
2023-05-06T12:54:47.474Z,17.45
2023-05-06T12:57:15.305Z,16.27
2023-05-06T12:59:44.466Z,17.01
2023-05-06T13:02:13.718Z,17.48
2023-05-06T13:04:41.884Z,17.92
2023-05-06T13:07:09.269Z,18.07
2023-05-06T13:09:36.730Z,17.45
2023-05-06T13:12:04.998Z,18.39
2023-05-06T13:14:32.383Z,17.61
2023-05-06T13:17:04.567Z,18.07
2023-05-06T13:19:33.659Z,17.45
2023-05-06T13:22:01.470Z,17.31
2023-05-06T13:24:29.271Z,17.40
2023-05-06T13:26:57.234Z,16.96
2023-05-06T13:29:25.179Z,16.75
2023-05-06T13:31:52.609Z,16.55
2023-05-06T13:34:20.020Z,15.87
2023-05-06T13:36:49.688Z,15.82
2023-05-06T13:39:17.221Z,16.51
2023-05-06T13:41:47.377Z,15.93
2023-05-06T13:44:14.988Z,15.92
2023-05-06T13:46:44.134Z,16.38
2023-05-06T13:49:13.533Z,16.16
2023-05-06T13:51:41.081Z,15.84
2023-05-06T13:54:10.083Z,15.59
2023-05-06T13:56:37.581Z,15.95
2023-05-06T13:59:05.211Z,16.46
2023-05-06T14:01:32.633Z,16.49
2023-05-06T14:04:00.142Z,16.22
2023-05-06T14:06:27.720Z,15.66
2023-05-06T14:08:55.678Z,15.30
2023-05-06T14:11:24.395Z,15.54
2023-05-06T14:13:51.799Z,16.06
2023-05-06T14:16:19.288Z,15.07
2023-05-06T14:18:46.706Z,16.07
2023-05-06T14:21:14.109Z,15.57
2023-05-06T14:23:41.560Z,15.61
2023-05-06T14:26:08.932Z,15.63
2023-05-06T14:28:37.670Z,15.64
2023-05-06T14:31:05.533Z,15.32
2023-05-06T14:33:32.975Z,15.49
2023-05-06T14:36:03.197Z,15.44
2023-05-06T14:38:33.638Z,14.92
2023-05-06T14:41:01.023Z,15.01
2023-05-06T14:43:28.404Z,15.03
2023-05-06T14:45:57.225Z,15.27
2023-05-06T14:48:25.442Z,15.22
2023-05-06T14:50:53.066Z,15.09
2023-05-06T14:53:20.448Z,15.50
2023-05-06T14:55:48.768Z,15.02
2023-05-06T14:58:16.197Z,15.85
2023-05-06T15:00:43.614Z,15.18
2023-05-06T15:03:12.333Z,15.75
2023-05-06T15:05:39.787Z,15.19
2023-05-06T15:08:07.302Z,14.54
2023-05-06T15:10:34.688Z,14.68
2023-05-06T15:13:02.221Z,14.80
2023-05-06T15:15:30.048Z,14.39
2023-05-06T15:17:57.443Z,14.44
2023-05-06T15:20:26.222Z,14.55
2023-05-06T15:22:53.923Z,14.93
2023-05-06T15:25:34.086Z,14.90
2023-05-06T15:28:02.744Z,15.02
2023-05-06T15:30:30.179Z,14.99
2023-05-06T15:32:57.609Z,14.37
2023-05-06T15:35:27.178Z,14.50
2023-05-06T15:37:58.430Z,14.70
2023-05-06T15:40:26.467Z,14.88
2023-05-06T15:42:53.919Z,14.47
2023-05-06T15:45:21.957Z,14.48
2023-05-06T15:47:49.433Z,14.28
2023-05-06T15:50:31.904Z,14.23
2023-05-06T15:53:02.630Z,14.25
2023-05-06T15:55:35.326Z,14.41
2023-05-06T15:58:11.114Z,14.87
2023-05-06T16:00:38.588Z,14.67
2023-05-06T16:03:08.089Z,14.37
2023-05-06T16:05:37.454Z,15.06
2023-05-06T16:08:06.742Z,15.40
2023-05-06T16:10:35.405Z,15.27
2023-05-06T16:13:02.822Z,14.55
2023-05-06T16:15:30.300Z,15.08
2023-05-06T16:17:57.697Z,15.05
2023-05-06T16:20:25.317Z,14.97
2023-05-06T16:22:56.612Z,14.51
2023-05-06T16:25:25.344Z,14.68
2023-05-06T16:27:53.448Z,13.80
2023-05-06T16:30:20.994Z,13.68
2023-05-06T16:32:48.507Z,14.40
2023-05-06T16:35:17.488Z,14.93
2023-05-06T16:37:45.449Z,14.99
2023-05-06T16:40:14.412Z,13.92
2023-05-06T16:42:43.113Z,13.86
2023-05-06T16:45:11.461Z,13.67
2023-05-06T16:47:38.997Z,13.21
2023-05-06T16:50:07.833Z,13.43
2023-05-06T16:52:35.781Z,13.56
2023-05-06T16:55:03.556Z,13.30
2023-05-06T16:57:31.122Z,13.61
2023-05-06T17:00:00.200Z,13.36
2023-05-06T17:02:27.694Z,13.54
2023-05-06T17:04:55.251Z,13.76
2023-05-06T17:07:22.678Z,13.31
2023-05-06T17:09:51.595Z,13.79
2023-05-06T17:12:20.469Z,14.03
2023-05-06T17:14:47.818Z,14.25
2023-05-06T17:17:16.560Z,13.75
2023-05-06T17:19:44.078Z,13.92
2023-05-06T17:22:11.626Z,14.05
2023-05-06T17:24:39.010Z,14.05
2023-05-06T17:27:06.732Z,13.65
2023-05-06T17:29:37.590Z,13.21
2023-05-06T17:32:06.227Z,13.68
2023-05-06T17:34:35.571Z,13.30
2023-05-06T17:37:04.409Z,13.48
2023-05-06T17:39:32.966Z,13.25
2023-05-06T17:42:01.570Z,13.22
2023-05-06T17:44:29.200Z,13.43
2023-05-06T17:46:56.928Z,13.27
2023-05-06T17:49:24.448Z,13.23
2023-05-06T17:51:53.181Z,12.82
2023-05-06T17:54:20.605Z,12.84
2023-05-06T17:56:50.463Z,12.97
2023-05-06T17:59:19.623Z,12.60
2023-05-06T18:01:47.192Z,12.91
2023-05-06T18:04:14.757Z,12.72
2023-05-06T18:06:42.796Z,12.50
2023-05-06T18:09:11.577Z,12.51
2023-05-06T18:11:40.358Z,12.44
2023-05-06T18:14:08.065Z,12.55
2023-05-06T18:16:35.616Z,13.01
2023-05-06T18:19:04.950Z,13.01
2023-05-06T18:21:33.892Z,12.90
2023-05-06T18:24:10.400Z,12.79
2023-05-06T18:26:46.041Z,12.86
2023-05-06T18:29:13.949Z,12.56
2023-05-06T18:31:41.455Z,12.59
2023-05-06T18:34:08.874Z,12.94
2023-05-06T18:36:36.480Z,12.68
2023-05-06T18:39:04.460Z,12.43
2023-05-06T18:41:31.816Z,12.45
2023-05-06T18:44:02.721Z,12.88
2023-05-06T18:46:30.077Z,12.93
2023-05-06T18:48:59.008Z,12.80
2023-05-06T18:51:27.418Z,13.05
2023-05-06T18:53:55.971Z,12.80
2023-05-06T18:56:23.384Z,12.85
2023-05-06T18:58:51.026Z,12.85
2023-05-06T19:01:19.752Z,12.53
2023-05-06T19:03:47.184Z,12.66
2023-05-06T19:06:14.787Z,12.32
2023-05-06T19:08:42.230Z,12.48
2023-05-06T19:11:15.467Z,12.33
2023-05-06T19:13:42.950Z,12.42
2023-05-06T19:16:10.609Z,12.50
2023-05-06T19:18:39.390Z,12.30
2023-05-06T19:21:06.864Z,11.96
2023-05-06T19:23:34.228Z,12.06
2023-05-06T19:26:01.620Z,11.97
2023-05-06T19:28:29.257Z,11.98
2023-05-06T19:30:56.683Z,12.32
2023-05-06T19:33:24.101Z,12.14
2023-05-06T19:35:52.980Z,12.39
2023-05-06T19:38:21.254Z,12.15
2023-05-06T19:40:48.901Z,12.19
2023-05-06T19:43:16.592Z,11.92
2023-05-06T19:45:44.065Z,12.01
2023-05-06T19:48:12.774Z,12.23
2023-05-06T19:50:40.165Z,11.97
2023-05-06T19:53:08.914Z,12.17
2023-05-06T19:55:37.380Z,11.86
2023-05-06T19:58:04.753Z,12.17
2023-05-06T20:00:32.190Z,11.60
2023-05-06T20:03:00.924Z,11.56
2023-05-06T20:05:32.617Z,11.74
2023-05-06T20:08:00.427Z,11.80
2023-05-06T20:10:30.217Z,11.65
2023-05-06T20:12:57.987Z,12.15
2023-05-06T20:15:26.471Z,12.32
2023-05-06T20:17:54.011Z,12.24
2023-05-06T20:20:21.750Z,12.30
2023-05-06T20:22:49.139Z,12.32
2023-05-06T20:25:18.527Z,11.96
2023-05-06T20:27:47.363Z,12.35
2023-05-06T20:30:15.000Z,12.01
2023-05-06T20:32:42.451Z,11.47
2023-05-06T20:35:10.321Z,11.23
2023-05-06T20:37:38.112Z,11.11
2023-05-06T20:40:07.738Z,11.22
2023-05-06T20:42:35.334Z,11.67
2023-05-06T20:45:05.031Z,11.90
2023-05-06T20:47:32.507Z,11.50
2023-05-06T20:49:59.923Z,11.68
2023-05-06T20:52:27.366Z,11.58
2023-05-06T20:54:54.761Z,11.53
2023-05-06T20:57:24.548Z,11.36
2023-05-06T20:59:52.355Z,11.32
2023-05-06T21:02:21.191Z,11.44
2023-05-06T21:04:48.640Z,11.38
2023-05-06T21:07:16.020Z,11.34
2023-05-06T21:09:43.371Z,11.66
2023-05-06T21:12:10.881Z,11.47
2023-05-06T21:14:38.260Z,11.37
2023-05-06T21:17:05.703Z,11.35
2023-05-06T21:19:37.538Z,11.16
2023-05-06T21:22:04.916Z,11.20
2023-05-06T21:24:32.298Z,11.46
2023-05-06T21:27:00.250Z,10.95
2023-05-06T21:29:27.617Z,11.03
2023-05-06T21:31:55.344Z,11.58
2023-05-06T21:34:22.713Z,11.71
2023-05-06T21:36:51.410Z,11.89
2023-05-06T21:39:18.792Z,11.89
2023-05-06T21:41:46.170Z,11.45
2023-05-06T21:44:13.568Z,11.15
2023-05-06T21:46:41.564Z,11.02
2023-05-06T21:49:09.002Z,10.92
2023-05-06T21:51:36.974Z,11.25
2023-05-06T21:54:05.715Z,11.54
2023-05-06T21:56:33.132Z,11.60
2023-05-06T21:59:00.827Z,11.70
2023-05-06T22:01:28.988Z,11.44
2023-05-06T22:03:56.638Z,11.56
2023-05-06T22:06:24.241Z,11.16
2023-05-06T22:08:51.993Z,11.27
2023-05-06T22:11:22.621Z,11.52
2023-05-06T22:13:50.199Z,11.37
2023-05-06T22:16:17.866Z,11.49
2023-05-06T22:18:45.334Z,11.67
2023-05-06T22:21:12.751Z,11.31
2023-05-06T22:23:40.630Z,11.30
2023-05-06T22:26:08.096Z,11.14
2023-05-06T22:28:36.806Z,11.29
2023-05-06T22:31:06.935Z,10.71
2023-05-06T22:33:34.373Z,11.27
2023-05-06T22:36:01.864Z,11.04
2023-05-06T22:38:31.193Z,10.65
2023-05-06T22:40:58.925Z,10.74
2023-05-06T22:43:26.303Z,11.17
2023-05-06T22:45:55.016Z,11.01
2023-05-06T22:48:22.498Z,11.11
2023-05-06T22:50:49.964Z,11.31
2023-05-06T22:53:17.318Z,11.15
2023-05-06T22:55:45.335Z,10.61
2023-05-06T22:58:12.790Z,11.04
2023-05-06T23:00:40.998Z,11.18
2023-05-06T23:03:10.153Z,10.84
2023-05-06T23:05:37.600Z,11.01
2023-05-06T23:08:05.271Z,10.32
2023-05-06T23:10:32.690Z,10.34
2023-05-06T23:13:01.494Z,9.99
2023-05-06T23:15:29.384Z,10.25
2023-05-06T23:17:56.898Z,10.33
2023-05-06T23:20:25.659Z,10.39
2023-05-06T23:22:53.209Z,10.17
2023-05-06T23:25:21.045Z,9.92
2023-05-06T23:27:48.455Z,10.12
2023-05-06T23:30:16.037Z,10.24
2023-05-06T23:32:43.514Z,10.39
2023-05-06T23:35:11.160Z,10.45
2023-05-06T23:37:40.196Z,10.84
2023-05-06T23:40:08.734Z,10.95
2023-05-06T23:42:36.101Z,10.55
2023-05-06T23:45:03.483Z,10.50
2023-05-06T23:47:30.896Z,10.95
2023-05-06T23:49:58.770Z,10.47
2023-05-06T23:52:26.747Z,10.51
2023-05-06T23:54:55.534Z,10.11
2023-05-06T23:57:22.935Z,9.99
2023-05-06T23:59:50.633Z,10.61
